createdAt,value
2023-03-28T00:01:05.017Z,99035.00
2023-03-28T00:03:35.913Z,99037.22
2023-03-28T00:06:05.616Z,99040.09
2023-03-28T00:08:32.847Z,99039.75
2023-03-28T00:11:13.896Z,99036.16
2023-03-28T00:13:41.119Z,99038.59
2023-03-28T00:16:12.500Z,99047.97
2023-03-28T00:18:40.270Z,99043.81
2023-03-28T00:21:23.751Z,99046.56
2023-03-28T00:23:55.535Z,99056.84
2023-03-28T00:26:26.067Z,99056.25
2023-03-28T00:28:53.464Z,99066.06
2023-03-28T00:31:20.769Z,99065.38
2023-03-28T00:33:47.787Z,99074.88
2023-03-28T00:36:18.562Z,99074.75
2023-03-28T00:38:47.557Z,99076.47
2023-03-28T00:41:16.118Z,99083.94
2023-03-28T00:43:45.416Z,99080.16
2023-03-28T00:46:36.660Z,99080.50
2023-03-28T00:49:09.937Z,99084.88
2023-03-28T00:51:50.748Z,99086.94
2023-03-28T00:54:21.667Z,99085.69
2023-03-28T00:56:52.848Z,99088.56
2023-03-28T00:59:23.775Z,99096.09
2023-03-28T01:01:50.841Z,99101.91
2023-03-28T01:04:20.502Z,99091.28
2023-03-28T01:06:54.750Z,99094.59
2023-03-28T01:09:24.096Z,99105.66
2023-03-28T01:11:52.106Z,99104.03
2023-03-28T01:14:22.126Z,99104.78
2023-03-28T01:16:49.368Z,99104.66
2023-03-28T01:19:34.417Z,99098.06
2023-03-28T01:22:41.168Z,99110.59
2023-03-28T01:25:30.576Z,99111.97
2023-03-28T01:28:30.781Z,99112.56
2023-03-28T01:31:10.819Z,99123.47
2023-03-28T01:34:29.833Z,99112.66
2023-03-28T01:37:21.499Z,99117.28
2023-03-28T01:40:13.757Z,99111.25
2023-03-28T01:42:53.169Z,99121.41
2023-03-28T01:45:37.921Z,99112.28
2023-03-28T01:48:14.983Z,99114.91
2023-03-28T01:51:18.587Z,99118.59
2023-03-28T01:54:30.215Z,99113.59
2023-03-28T01:57:03.755Z,99119.16
2023-03-28T01:59:37.680Z,99120.16
2023-03-28T02:02:28.499Z,99129.22
2023-03-28T02:04:58.833Z,99128.84
2023-03-28T02:07:27.187Z,99123.97
2023-03-28T02:09:56.400Z,99129.22
2023-03-28T02:12:31.055Z,99130.66
2023-03-28T02:15:00.258Z,99124.34
2023-03-28T02:17:29.094Z,99130.91
2023-03-28T02:20:00.857Z,99133.81
2023-03-28T02:22:32.777Z,99135.41
2023-03-28T02:24:59.845Z,99133.81
2023-03-28T02:27:26.678Z,99137.41
2023-03-28T02:29:54.785Z,99137.75
2023-03-28T02:32:22.450Z,99136.16
2023-03-28T02:34:53.818Z,99133.56
2023-03-28T02:38:05.790Z,99141.84
2023-03-28T02:40:38.265Z,99147.06
2023-03-28T02:43:16.908Z,99147.53
2023-03-28T02:45:46.466Z,99152.94
2023-03-28T02:48:31.864Z,99155.00
2023-03-28T02:51:40.439Z,99149.88
2023-03-28T02:54:30.476Z,99160.19
2023-03-28T02:57:18.429Z,99165.75
2023-03-28T02:59:57.134Z,99174.31
2023-03-28T03:02:25.505Z,99165.69
2023-03-28T03:04:52.171Z,99167.69
2023-03-28T03:07:20.883Z,99166.94
2023-03-28T03:09:48.833Z,99166.94
2023-03-28T03:12:15.799Z,99166.19
2023-03-28T03:14:42.438Z,99171.91
2023-03-28T03:17:09.023Z,99171.91
2023-03-28T03:19:36.366Z,99174.34
2023-03-28T03:22:03.765Z,99183.28
2023-03-28T03:24:30.390Z,99177.84
2023-03-28T03:26:57.113Z,99178.78
2023-03-28T03:29:23.898Z,99182.59
2023-03-28T03:31:50.852Z,99190.16
2023-03-28T03:34:17.603Z,99182.69
2023-03-28T03:36:45.817Z,99188.41
2023-03-28T03:39:12.526Z,99192.91
2023-03-28T03:41:39.116Z,99188.84
2023-03-28T03:44:05.785Z,99197.69
2023-03-28T03:46:32.611Z,99194.44
2023-03-28T03:49:00.628Z,99202.91
2023-03-28T03:51:27.257Z,99199.00
2023-03-28T03:53:53.948Z,99195.03
2023-03-28T03:56:21.270Z,99204.41
2023-03-28T03:58:47.996Z,99206.69
2023-03-28T04:01:14.739Z,99213.81
2023-03-28T04:03:42.638Z,99210.50
2023-03-28T04:06:09.518Z,99211.31
2023-03-28T04:08:36.349Z,99211.00
2023-03-28T04:11:04.946Z,99218.78
2023-03-28T04:13:32.811Z,99219.84
2023-03-28T04:15:59.637Z,99224.53
2023-03-28T04:18:26.526Z,99232.09
2023-03-28T04:20:56.438Z,99225.38
2023-03-28T04:23:26.096Z,99237.06
2023-03-28T04:26:00.976Z,99239.28
2023-03-28T04:28:29.265Z,99236.91
2023-03-28T04:31:00.098Z,99232.28
2023-03-28T04:33:35.191Z,99228.28
2023-03-28T04:36:02.837Z,99243.38
2023-03-28T04:38:41.785Z,99233.41
2023-03-28T04:41:08.480Z,99236.88
2023-03-28T04:43:35.280Z,99235.69
2023-03-28T04:46:02.169Z,99234.06
2023-03-28T04:48:29.689Z,99235.25
2023-03-28T04:50:57.297Z,99229.53
2023-03-28T04:53:24.012Z,99229.97
2023-03-28T04:55:52.528Z,99235.19
2023-03-28T04:58:21.079Z,99233.13
2023-03-28T05:00:49.692Z,99226.91
2023-03-28T05:03:21.807Z,99233.41
2023-03-28T05:05:51.373Z,99236.88
2023-03-28T05:08:21.097Z,99234.22
2023-03-28T05:10:48.080Z,99236.69
2023-03-28T05:13:16.208Z,99237.47
2023-03-28T05:15:43.808Z,99239.31
2023-03-28T05:18:11.609Z,99241.16
2023-03-28T05:20:38.484Z,99252.13
2023-03-28T05:23:06.284Z,99242.56
2023-03-28T05:25:33.295Z,99240.13
2023-03-28T05:28:00.103Z,99245.41
2023-03-28T05:30:28.703Z,99232.28
2023-03-28T05:32:55.995Z,99245.34
2023-03-28T05:35:23.922Z,99234.00
2023-03-28T05:37:51.478Z,99247.38
2023-03-28T05:40:19.327Z,99250.03
2023-03-28T05:42:46.410Z,99245.53
2023-03-28T05:45:16.680Z,99247.38
2023-03-28T05:47:44.631Z,99241.66
2023-03-28T05:50:11.493Z,99250.22
2023-03-28T05:52:39.324Z,99251.84
2023-03-28T05:55:07.651Z,99258.53
2023-03-28T05:57:34.803Z,99255.00
2023-03-28T06:00:02.145Z,99254.75
2023-03-28T06:02:29.480Z,99260.28
2023-03-28T06:04:56.569Z,99263.38
2023-03-28T06:07:35.328Z,99266.28
2023-03-28T06:10:09.417Z,99274.22
2023-03-28T06:12:38.017Z,99275.47
2023-03-28T06:15:06.327Z,99288.97
2023-03-28T06:17:33.095Z,99294.72
2023-03-28T06:20:00.007Z,99296.63
2023-03-28T06:22:26.751Z,99292.75
2023-03-28T06:24:53.421Z,99303.19
2023-03-28T06:27:20.398Z,99305.41
2023-03-28T06:29:48.349Z,99309.28
2023-03-28T06:32:15.908Z,99303.59
2023-03-28T06:34:42.607Z,99309.09
2023-03-28T06:37:09.348Z,99315.59
2023-03-28T06:39:35.975Z,99305.00
2023-03-28T06:42:04.470Z,99317.19
2023-03-28T06:44:32.850Z,99318.81
2023-03-28T06:46:59.455Z,99313.94
2023-03-28T06:49:26.046Z,99314.31
2023-03-28T06:51:54.427Z,99310.06
2023-03-28T06:54:21.548Z,99315.97
2023-03-28T06:56:48.627Z,99315.53
2023-03-28T06:59:15.662Z,99318.38
2023-03-28T07:01:42.471Z,99315.13
2023-03-28T07:04:09.391Z,99315.06
2023-03-28T07:06:37.605Z,99322.00
2023-03-28T07:09:06.413Z,99319.31
2023-03-28T07:11:33.665Z,99313.75
2023-03-28T07:14:00.367Z,99314.53
2023-03-28T07:16:27.003Z,99313.84
2023-03-28T07:18:53.636Z,99312.38
2023-03-28T07:21:20.494Z,99318.44
2023-03-28T07:23:47.233Z,99318.38
2023-03-28T07:26:16.101Z,99316.03
2023-03-28T07:28:42.993Z,99314.75
2023-03-28T07:31:09.803Z,99312.09
2023-03-28T07:33:38.357Z,99320.66
2023-03-28T07:36:15.030Z,99316.91
2023-03-28T07:38:42.022Z,99322.00
2023-03-28T07:41:10.093Z,99327.47
2023-03-28T07:43:39.442Z,99323.38
2023-03-28T07:46:08.663Z,99312.50
2023-03-28T07:48:37.124Z,99324.88
2023-03-28T07:51:08.239Z,99337.28
2023-03-28T07:53:37.566Z,99321.53
2023-03-28T07:56:05.992Z,99311.22
2023-03-28T07:58:32.615Z,99320.06
2023-03-28T08:01:08.190Z,99319.56
2023-03-28T08:03:36.308Z,99319.94
2023-03-28T08:06:09.396Z,99313.88
2023-03-28T08:08:43.576Z,99308.56
2023-03-28T08:11:12.353Z,99315.81
2023-03-28T08:13:39.047Z,99315.25
2023-03-28T08:16:06.244Z,99315.63
2023-03-28T08:18:32.900Z,99326.78
2023-03-28T08:21:03.090Z,99319.13
2023-03-28T08:23:30.030Z,99318.09
2023-03-28T08:26:06.415Z,99308.81
2023-03-28T08:28:34.709Z,99310.69
2023-03-28T08:31:02.787Z,99324.69
2023-03-28T08:33:29.821Z,99321.84
2023-03-28T08:35:57.050Z,99306.25
2023-03-28T08:38:24.214Z,99324.53
2023-03-28T08:41:19.977Z,99320.03
2023-03-28T08:44:03.257Z,99315.28
2023-03-28T08:46:31.982Z,99317.38
2023-03-28T08:49:03.940Z,99313.34
2023-03-28T08:51:40.593Z,99315.00
2023-03-28T08:54:20.585Z,99323.56
2023-03-28T08:56:58.447Z,99322.97
2023-03-28T09:00:09.159Z,99319.94
2023-03-28T09:02:36.292Z,99327.38
2023-03-28T09:07:48.776Z,99330.25
2023-03-28T09:10:22.175Z,99328.78
2023-03-28T09:13:17.294Z,99334.31
2023-03-28T09:16:32.027Z,99324.34
2023-03-28T09:19:01.284Z,99323.19
2023-03-28T09:22:04.990Z,99315.78
2023-03-28T09:25:24.481Z,99315.91
2023-03-28T09:27:59.013Z,99310.53
2023-03-28T09:30:32.465Z,99314.00
2023-03-28T09:33:06.767Z,99315.16
2023-03-28T09:35:35.600Z,99303.06
2023-03-28T09:38:12.523Z,99317.44
2023-03-28T09:40:42.733Z,99320.56
2023-03-28T09:43:15.729Z,99318.94
2023-03-28T09:45:50.154Z,99319.16
2023-03-28T09:48:23.352Z,99321.38
2023-03-28T09:50:52.702Z,99321.56
2023-03-28T09:53:37.008Z,99326.63
2023-03-28T09:56:09.861Z,99314.72
2023-03-28T09:58:50.547Z,99317.25
2023-03-28T10:01:44.493Z,99319.63
2023-03-28T10:04:17.871Z,99325.38
2023-03-28T10:06:45.859Z,99325.94
2023-03-28T10:09:26.279Z,99326.81
2023-03-28T10:11:55.839Z,99324.13
2023-03-28T10:14:32.408Z,99320.38
2023-03-28T10:17:08.053Z,99324.28
2023-03-28T10:19:38.116Z,99316.78
2023-03-28T10:22:21.987Z,99318.63
2023-03-28T10:24:49.227Z,99317.69
2023-03-28T10:27:25.680Z,99311.22
2023-03-28T10:29:54.843Z,99313.41
2023-03-28T10:32:28.042Z,99311.22
2023-03-28T10:35:17.699Z,99322.22
2023-03-28T10:37:48.733Z,99320.03
2023-03-28T10:40:19.041Z,99327.53
2023-03-28T10:42:48.797Z,99324.31
2023-03-28T10:45:45.741Z,99328.03
2023-03-28T10:48:16.545Z,99322.44
2023-03-28T10:50:53.498Z,99314.13
2023-03-28T10:53:37.763Z,99315.59
2023-03-28T10:56:39.340Z,99329.81
2023-03-28T10:59:43.332Z,99328.81
2023-03-28T11:02:40.357Z,99328.81
2023-03-28T11:05:25.986Z,99315.25
2023-03-28T11:08:06.241Z,99317.63
2023-03-28T11:11:12.378Z,99325.09
2023-03-28T11:14:03.843Z,99326.72
2023-03-28T11:16:54.247Z,99328.44
2023-03-28T11:19:59.655Z,99317.84
2023-03-28T11:22:35.502Z,99337.06
2023-03-28T11:25:31.345Z,99324.94
2023-03-28T11:28:16.940Z,99332.22
2023-03-28T11:30:47.888Z,99328.66
2023-03-28T11:33:19.532Z,99332.44
2023-03-28T11:36:06.282Z,99321.81
2023-03-28T11:38:37.849Z,99338.00
2023-03-28T11:41:17.191Z,99339.97
2023-03-28T11:43:51.572Z,99331.72
2023-03-28T11:46:39.207Z,99332.50
2023-03-28T11:49:41.006Z,99342.50
2023-03-28T11:52:11.860Z,99326.81
2023-03-28T11:54:49.091Z,99341.31
2023-03-28T11:57:26.358Z,99334.72
2023-03-28T12:00:32.186Z,99340.66
2023-03-28T12:03:19.021Z,99337.28
2023-03-28T12:05:49.393Z,99340.47
2023-03-28T12:08:25.642Z,99325.16
2023-03-28T12:10:57.739Z,99332.69
2023-03-28T12:13:31.749Z,99332.31
2023-03-28T12:16:09.831Z,99344.59
2023-03-28T12:18:52.256Z,99350.72
2023-03-28T12:21:36.707Z,99344.44
2023-03-28T12:24:23.278Z,99340.69
2023-03-28T12:27:06.878Z,99341.44
2023-03-28T12:29:59.375Z,99350.25
2023-03-28T12:32:32.773Z,99348.16
2023-03-28T12:35:35.481Z,99340.22
2023-03-28T12:38:21.047Z,99346.19
2023-03-28T12:41:00.735Z,99339.91
2023-03-28T12:43:43.526Z,99351.72
2023-03-28T12:46:14.096Z,99337.91
2023-03-28T12:48:45.448Z,99341.66
2023-03-28T12:51:22.179Z,99337.47
2023-03-28T12:54:16.694Z,99348.00
2023-03-28T12:57:03.207Z,99351.81
2023-03-28T12:59:41.496Z,99334.38
2023-03-28T13:02:32.397Z,99347.94
2023-03-28T13:05:14.076Z,99351.03
2023-03-28T13:07:57.579Z,99360.91
2023-03-28T13:10:37.750Z,99339.75
2023-03-28T13:13:33.038Z,99340.88
2023-03-28T13:16:47.117Z,99346.13
2023-03-28T13:19:18.716Z,99345.25
2023-03-28T13:21:52.832Z,99337.00
2023-03-28T13:24:25.606Z,99334.06
2023-03-28T13:27:01.367Z,99340.38
2023-03-28T13:29:59.757Z,99328.28
2023-03-28T13:32:26.778Z,99340.63
2023-03-28T13:35:01.282Z,99330.41
2023-03-28T13:37:43.025Z,99318.81
2023-03-28T13:40:50.804Z,99328.34
2023-03-28T13:43:27.357Z,99333.16
2023-03-28T13:45:58.656Z,99331.41
2023-03-28T13:48:33.334Z,99330.91
2023-03-28T13:51:01.655Z,99319.91
2023-03-28T13:53:46.494Z,99324.72
2023-03-28T13:56:33.865Z,99319.53
2023-03-28T13:59:06.045Z,99322.22
2023-03-28T14:01:44.853Z,99329.66
2023-03-28T14:04:19.459Z,99332.84
2023-03-28T14:06:46.416Z,99310.72
2023-03-28T14:09:31.300Z,99319.03
2023-03-28T14:11:59.921Z,99331.63
2023-03-28T14:14:47.277Z,99326.16
2023-03-28T14:17:24.617Z,99323.97
2023-03-28T14:19:58.357Z,99331.00
2023-03-28T14:22:28.826Z,99328.59
2023-03-28T14:25:01.251Z,99337.47
2023-03-28T14:27:27.783Z,99333.25
2023-03-28T14:29:56.832Z,99332.72
2023-03-28T14:32:26.758Z,99327.16
2023-03-28T14:34:55.911Z,99325.31
2023-03-28T14:37:23.078Z,99324.28
2023-03-28T14:39:51.249Z,99329.31
2023-03-28T14:42:20.245Z,99334.09
2023-03-28T14:44:54.053Z,99329.97
2023-03-28T14:47:32.174Z,99339.03
2023-03-28T14:50:01.530Z,99328.34
2023-03-28T14:52:30.808Z,99331.59
2023-03-28T14:54:58.798Z,99326.31
2023-03-28T14:57:26.648Z,99335.19
2023-03-28T14:59:58.512Z,99325.28
2023-03-28T15:02:45.358Z,99331.47
2023-03-28T15:05:18.476Z,99324.66
2023-03-28T15:07:46.042Z,99325.16
2023-03-28T15:10:18.345Z,99338.53
2023-03-28T15:12:49.617Z,99323.63
2023-03-28T15:15:39.303Z,99316.63
2023-03-28T15:18:13.055Z,99320.09
2023-03-28T15:20:44.465Z,99312.38
2023-03-28T15:23:33.496Z,99310.75
2023-03-28T15:26:05.325Z,99322.16
2023-03-28T15:28:32.205Z,99323.53
2023-03-28T15:31:03.887Z,99330.00
2023-03-28T15:33:34.626Z,99340.00
2023-03-28T15:36:16.503Z,99328.47
2023-03-28T15:38:43.482Z,99326.88
2023-03-28T15:41:20.456Z,99327.81
2023-03-28T15:43:54.234Z,99326.09
2023-03-28T15:46:22.685Z,99330.53
2023-03-28T15:48:49.368Z,99333.03
2023-03-28T15:51:18.385Z,99332.78
2023-03-28T15:53:47.675Z,99327.53
2023-03-28T15:56:31.987Z,99324.09
2023-03-28T15:59:14.684Z,99317.97
2023-03-28T16:01:41.473Z,99330.09
2023-03-28T16:04:21.039Z,99332.47
2023-03-28T16:06:48.271Z,99329.16
2023-03-28T16:09:21.633Z,99335.50
2023-03-28T16:12:03.600Z,99335.22
2023-03-28T16:14:31.920Z,99339.13
2023-03-28T16:16:58.536Z,99334.69
2023-03-28T16:19:28.036Z,99326.25
2023-03-28T16:21:54.655Z,99332.31
2023-03-28T16:24:21.499Z,99330.88
2023-03-28T16:26:48.385Z,99333.44
2023-03-28T16:29:15.486Z,99325.63
2023-03-28T16:31:42.754Z,99338.47
2023-03-28T16:34:10.611Z,99335.56
2023-03-28T16:36:39.829Z,99343.84
2023-03-28T16:39:09.333Z,99342.09
2023-03-28T16:41:36.013Z,99341.44
2023-03-28T16:44:03.419Z,99338.41
2023-03-28T16:46:30.172Z,99347.66
2023-03-28T16:48:56.872Z,99339.16
2023-03-28T16:51:24.404Z,99339.97
2023-03-28T16:53:51.055Z,99346.06
2023-03-28T16:56:19.695Z,99360.31
2023-03-28T16:58:48.398Z,99355.97
2023-03-28T17:01:19.113Z,99368.53
2023-03-28T17:03:46.934Z,99370.28
2023-03-28T17:06:14.660Z,99380.44
2023-03-28T17:08:41.433Z,99379.56
2023-03-28T17:11:11.762Z,99376.16
2023-03-28T17:13:41.081Z,99398.34
2023-03-28T17:16:09.560Z,99423.13
2023-03-28T17:18:37.940Z,99435.00
2023-03-28T17:21:09.943Z,99437.16
2023-03-28T17:23:38.494Z,99438.84
2023-03-28T17:26:07.843Z,99435.53
2023-03-28T17:28:37.591Z,99440.34
2023-03-28T17:31:18.016Z,99443.94
2023-03-28T17:33:46.404Z,99442.06
2023-03-28T17:36:14.702Z,99438.16
2023-03-28T17:38:41.471Z,99448.56
2023-03-28T17:41:09.156Z,99449.63
2023-03-28T17:43:35.831Z,99464.88
2023-03-28T17:46:02.834Z,99456.75
2023-03-28T17:48:29.684Z,99457.69
2023-03-28T17:50:56.278Z,99456.16
2023-03-28T17:53:22.939Z,99442.59
2023-03-28T17:55:49.954Z,99439.72
2023-03-28T17:58:18.093Z,99436.41
2023-03-28T18:00:45.430Z,99430.44
2023-03-28T18:03:12.125Z,99456.94
2023-03-28T18:05:38.953Z,99463.16
2023-03-28T18:08:05.825Z,99459.72
2023-03-28T18:10:32.435Z,99472.94
2023-03-28T18:12:59.041Z,99478.69
2023-03-28T18:15:26.002Z,99469.91
2023-03-28T18:17:52.730Z,99472.88
2023-03-28T18:20:19.392Z,99474.84
2023-03-28T18:22:46.353Z,99478.84
2023-03-28T18:25:13.168Z,99475.88
2023-03-28T18:27:40.885Z,99481.09
2023-03-28T18:30:08.500Z,99473.97
2023-03-28T18:32:37.574Z,99466.00
2023-03-28T18:35:07.244Z,99461.75
2023-03-28T18:37:34.480Z,99466.00
2023-03-28T18:40:01.932Z,99464.97
2023-03-28T18:42:29.959Z,99464.53
2023-03-28T18:44:57.969Z,99459.44
2023-03-28T18:47:24.719Z,99453.31
2023-03-28T18:49:51.654Z,99455.38
2023-03-28T18:52:18.265Z,99461.50
2023-03-28T18:54:46.882Z,99455.56
2023-03-28T18:57:14.999Z,99451.31
2023-03-28T18:59:43.182Z,99450.81
2023-03-28T19:02:16.332Z,99461.63
2023-03-28T19:04:43.321Z,99469.84
2023-03-28T19:07:10.754Z,99463.03
2023-03-28T19:09:38.246Z,99459.09
2023-03-28T19:12:06.373Z,99466.44
2023-03-28T19:14:33.523Z,99474.69
2023-03-28T19:17:00.154Z,99470.59
2023-03-28T19:19:27.240Z,99467.75
2023-03-28T19:21:53.934Z,99469.72
2023-03-28T19:24:21.446Z,99471.31
2023-03-28T19:26:49.605Z,99473.81
2023-03-28T19:29:17.013Z,99477.53
2023-03-28T19:31:44.952Z,99479.41
2023-03-28T19:34:19.220Z,99483.25
2023-03-28T19:36:47.558Z,99485.72
2023-03-28T19:39:14.836Z,99481.63
2023-03-28T19:41:41.723Z,99483.47
2023-03-28T19:44:08.712Z,99481.03
2023-03-28T19:46:37.951Z,99487.94
2023-03-28T19:49:06.467Z,99477.56
2023-03-28T19:51:33.453Z,99480.41
2023-03-28T19:54:00.336Z,99484.06
2023-03-28T19:56:28.017Z,99481.03
2023-03-28T19:58:55.008Z,99472.69
2023-03-28T20:01:21.853Z,99486.25
2023-03-28T20:03:52.483Z,99482.50
2023-03-28T20:06:21.285Z,99486.69
2023-03-28T20:08:47.964Z,99490.78
2023-03-28T20:11:15.975Z,99476.66
2023-03-28T20:13:43.689Z,99478.28
2023-03-28T20:16:12.159Z,99469.56
2023-03-28T20:18:39.684Z,99476.09
2023-03-28T20:21:11.231Z,99469.78
2023-03-28T20:23:38.079Z,99473.06
2023-03-28T20:26:20.418Z,99475.47
2023-03-28T20:28:49.726Z,99473.06
2023-03-28T20:31:18.017Z,99474.22
2023-03-28T20:33:45.166Z,99471.75
2023-03-28T20:36:12.189Z,99470.34
2023-03-28T20:38:38.961Z,99481.13
2023-03-28T20:41:11.276Z,99472.97
2023-03-28T20:43:40.806Z,99470.09
2023-03-28T20:46:09.875Z,99476.97
2023-03-28T20:48:36.860Z,99486.28
2023-03-28T20:51:15.297Z,99489.97
2023-03-28T20:53:44.857Z,99493.69
2023-03-28T20:56:13.541Z,99494.06
2023-03-28T20:58:42.779Z,99488.91
2023-03-28T21:01:12.226Z,99496.00
2023-03-28T21:03:50.303Z,99494.69
2023-03-28T21:06:33.681Z,99497.06
2023-03-28T21:09:01.983Z,99498.22
2023-03-28T21:11:33.142Z,99494.19
2023-03-28T21:14:02.516Z,99493.41
2023-03-28T21:16:30.522Z,99489.78
2023-03-28T21:18:57.726Z,99488.13
2023-03-28T21:21:24.662Z,99499.06
2023-03-28T21:23:53.244Z,99495.03
2023-03-28T21:26:21.418Z,99488.31
2023-03-28T21:28:49.070Z,99490.16
2023-03-28T21:31:27.262Z,99491.22
2023-03-28T21:33:57.334Z,99493.84
2023-03-28T21:36:25.305Z,99490.41
2023-03-28T21:38:53.766Z,99491.00
2023-03-28T21:41:20.616Z,99480.59
2023-03-28T21:43:48.305Z,99489.88
2023-03-28T21:46:18.332Z,99497.56
2023-03-28T21:48:48.327Z,99490.25
2023-03-28T21:51:17.246Z,99492.00
2023-03-28T21:53:45.649Z,99492.09
2023-03-28T21:56:16.047Z,99488.38
2023-03-28T21:58:42.708Z,99496.41
2023-03-28T22:01:13.625Z,99487.41
2023-03-28T22:03:40.683Z,99493.53
2023-03-28T22:06:07.913Z,99496.25
2023-03-28T22:08:34.540Z,99496.59
2023-03-28T22:11:04.422Z,99494.97
2023-03-28T22:13:31.434Z,99495.59
2023-03-28T22:16:00.106Z,99498.03
2023-03-28T22:18:27.822Z,99504.13
2023-03-28T22:20:54.721Z,99497.78
2023-03-28T22:23:24.080Z,99503.97
2023-03-28T22:25:53.072Z,99500.47
2023-03-28T22:28:24.607Z,99505.84
2023-03-28T22:30:55.343Z,99505.34
2023-03-28T22:33:24.171Z,99511.34
2023-03-28T22:35:51.718Z,99509.63
2023-03-28T22:38:19.504Z,99509.19
2023-03-28T22:40:47.792Z,99509.19
2023-03-28T22:43:15.033Z,99500.38
2023-03-28T22:45:42.914Z,99491.25
2023-03-28T22:48:15.787Z,99497.97
2023-03-28T22:50:46.441Z,99501.69
2023-03-28T22:53:14.766Z,99496.19
2023-03-28T22:55:43.620Z,99488.88
2023-03-28T22:58:11.907Z,99495.16
2023-03-28T23:00:40.099Z,99500.47
2023-03-28T23:03:08.098Z,99498.31
2023-03-28T23:05:35.118Z,99499.56
2023-03-28T23:08:02.054Z,99497.97
2023-03-28T23:10:32.024Z,99491.81
2023-03-28T23:13:00.640Z,99486.84
2023-03-28T23:15:29.224Z,99491.72
2023-03-28T23:17:56.505Z,99487.50
2023-03-28T23:20:26.760Z,99485.06
2023-03-28T23:22:56.167Z,99490.78
2023-03-28T23:25:23.947Z,99484.94
2023-03-28T23:27:50.608Z,99477.34
2023-03-28T23:30:17.578Z,99464.84
2023-03-28T23:32:44.292Z,99456.78
2023-03-28T23:35:11.792Z,99458.19
2023-03-28T23:37:38.754Z,99459.41
2023-03-28T23:40:10.209Z,99455.41
2023-03-28T23:42:36.860Z,99454.97
2023-03-28T23:45:04.305Z,99462.97
2023-03-28T23:47:31.004Z,99453.69
2023-03-28T23:49:59.032Z,99452.31
2023-03-28T23:52:25.840Z,99439.09
2023-03-28T23:54:52.578Z,99431.53
2023-03-28T23:57:19.912Z,99438.69
2023-03-28T23:59:46.595Z,99439.59
